createdAt,value
2023-03-09T00:00:40.009Z,100.00
2023-03-09T00:03:27.055Z,100.00
2023-03-09T00:06:13.672Z,100.00
2023-03-09T00:09:00.218Z,100.00
2023-03-09T00:11:48.983Z,100.00
2023-03-09T00:14:35.349Z,100.00
2023-03-09T00:17:22.099Z,100.00
2023-03-09T00:20:18.942Z,100.00
2023-03-09T00:23:09.810Z,100.00
2023-03-09T00:25:56.381Z,100.00
2023-03-09T00:28:43.169Z,100.00
2023-03-09T00:31:30.422Z,100.00
2023-03-09T00:34:17.422Z,100.00
2023-03-09T00:37:04.280Z,100.00
2023-03-09T00:39:50.864Z,100.00
2023-03-09T00:42:39.232Z,100.00
2023-03-09T00:45:27.168Z,100.00
2023-03-09T00:48:13.781Z,100.00
2023-03-09T00:51:00.077Z,100.00
2023-03-09T00:53:46.939Z,100.00
2023-03-09T00:56:33.487Z,100.00
2023-03-09T00:59:21.248Z,100.00
2023-03-09T01:02:07.490Z,100.00
2023-03-09T01:04:54.358Z,100.00
2023-03-09T01:07:42.009Z,100.00
2023-03-09T01:10:28.798Z,100.00
2023-03-09T01:13:15.116Z,100.00
2023-03-09T01:16:03.072Z,100.00
2023-03-09T01:18:50.459Z,100.00
2023-03-09T01:21:37.993Z,100.00
2023-03-09T01:24:26.400Z,100.00
2023-03-09T01:27:15.924Z,100.00
2023-03-09T01:30:02.698Z,100.00
2023-03-09T01:32:49.301Z,100.00
2023-03-09T01:35:35.683Z,100.00
2023-03-09T01:38:22.116Z,100.00
2023-03-09T01:41:09.937Z,100.00
2023-03-09T01:43:56.417Z,100.00
2023-03-09T01:46:57.619Z,100.00
2023-03-09T01:49:51.602Z,100.00
2023-03-09T01:52:38.698Z,100.00
2023-03-09T01:55:33.104Z,100.00
2023-03-09T01:58:24.748Z,100.00
2023-03-09T02:01:12.798Z,100.00
2023-03-09T02:04:08.714Z,100.00
2023-03-09T02:06:55.861Z,100.00
2023-03-09T02:09:53.899Z,100.00
2023-03-09T02:12:42.061Z,100.00
2023-03-09T02:15:32.654Z,100.00
2023-03-09T02:18:19.375Z,100.00
2023-03-09T02:21:11.279Z,100.00
2023-03-09T02:24:12.727Z,100.00
2023-03-09T02:27:13.552Z,100.00
2023-03-09T02:30:02.232Z,100.00
2023-03-09T02:33:03.641Z,100.00
2023-03-09T02:35:50.224Z,100.00
2023-03-09T02:38:36.965Z,100.00
2023-03-09T02:41:24.696Z,100.00
2023-03-09T02:44:11.703Z,100.00
2023-03-09T02:47:02.076Z,100.00
2023-03-09T02:49:48.864Z,100.00
2023-03-09T02:52:35.439Z,100.00
2023-03-09T02:55:24.308Z,100.00
2023-03-09T02:58:11.795Z,100.00
2023-03-09T03:00:58.385Z,100.00
2023-03-09T03:03:45.075Z,100.00
2023-03-09T03:06:31.571Z,100.00
2023-03-09T03:09:17.967Z,100.00
2023-03-09T03:12:05.352Z,100.00
2023-03-09T03:14:52.110Z,100.00
2023-03-09T03:17:38.966Z,100.00
2023-03-09T03:20:26.926Z,100.00
2023-03-09T03:23:13.984Z,100.00
2023-03-09T03:26:09.369Z,100.00
2023-03-09T03:28:58.857Z,100.00
2023-03-09T03:31:47.753Z,100.00
2023-03-09T03:34:34.931Z,100.00
2023-03-09T03:37:23.074Z,100.00
2023-03-09T03:40:11.259Z,100.00
2023-03-09T03:43:02.451Z,100.00
2023-03-09T03:45:49.672Z,100.00
2023-03-09T03:48:38.270Z,100.00
2023-03-09T03:51:25.341Z,100.00
2023-03-09T03:54:14.254Z,100.00
2023-03-09T03:57:01.469Z,100.00
2023-03-09T03:59:48.028Z,100.00
2023-03-09T04:02:34.832Z,100.00
2023-03-09T04:05:23.120Z,100.00
2023-03-09T04:08:09.855Z,100.00
2023-03-09T04:10:57.220Z,100.00
2023-03-09T04:13:47.244Z,100.00
2023-03-09T04:16:34.235Z,100.00
2023-03-09T04:19:20.529Z,100.00
2023-03-09T04:22:08.358Z,100.00
2023-03-09T04:24:55.541Z,100.00
2023-03-09T04:27:42.499Z,100.00
2023-03-09T04:30:39.624Z,100.00
2023-03-09T04:33:30.125Z,100.00
2023-03-09T04:36:16.944Z,100.00
2023-03-09T04:39:06.516Z,100.00
2023-03-09T04:41:56.032Z,100.00
2023-03-09T04:44:42.488Z,100.00
2023-03-09T04:47:29.318Z,100.00
2023-03-09T04:50:16.394Z,100.00
2023-03-09T04:53:10.574Z,100.00
2023-03-09T04:56:01.482Z,100.00
2023-03-09T04:58:51.224Z,100.00
2023-03-09T05:01:39.191Z,100.00
2023-03-09T05:04:30.620Z,100.00
2023-03-09T05:07:20.678Z,100.00
2023-03-09T05:10:09.175Z,100.00
2023-03-09T05:12:58.412Z,100.00
2023-03-09T05:15:50.372Z,100.00
2023-03-09T05:18:37.190Z,100.00
2023-03-09T05:21:23.814Z,100.00
2023-03-09T05:24:12.067Z,100.00
2023-03-09T05:26:58.991Z,100.00
2023-03-09T05:29:52.498Z,100.00
2023-03-09T05:32:39.472Z,100.00
2023-03-09T05:35:26.773Z,100.00
2023-03-09T05:38:14.071Z,100.00
2023-03-09T05:41:07.711Z,100.00
2023-03-09T05:43:54.257Z,100.00
2023-03-09T05:46:41.284Z,100.00
2023-03-09T05:49:28.825Z,100.00
2023-03-09T05:52:15.456Z,100.00
2023-03-09T05:55:03.628Z,100.00
2023-03-09T05:57:51.192Z,100.00
2023-03-09T06:00:39.072Z,100.00
2023-03-09T06:03:27.603Z,100.00
2023-03-09T06:06:17.648Z,100.00
2023-03-09T06:09:04.636Z,100.00
2023-03-09T06:11:51.449Z,100.00
2023-03-09T06:14:40.765Z,100.00
2023-03-09T06:17:28.697Z,100.00
2023-03-09T06:20:16.142Z,100.00
2023-03-09T06:23:07.396Z,100.00
2023-03-09T06:25:53.891Z,100.00
2023-03-09T06:28:41.846Z,100.00
2023-03-09T06:31:28.575Z,100.00
2023-03-09T06:34:17.099Z,100.00
2023-03-09T06:37:04.083Z,100.00
2023-03-09T06:39:51.802Z,100.00
2023-03-09T06:42:38.549Z,100.00
2023-03-09T06:45:26.170Z,100.00
2023-03-09T06:48:13.571Z,100.00
2023-03-09T06:51:01.614Z,100.00
2023-03-09T06:53:48.265Z,100.00
2023-03-09T06:56:38.385Z,100.00
2023-03-09T06:59:29.604Z,100.00
2023-03-09T07:02:18.086Z,100.00
2023-03-09T07:05:06.903Z,100.00
2023-03-09T07:07:53.538Z,100.00
2023-03-09T07:10:40.263Z,100.00
2023-03-09T07:13:26.846Z,100.00
2023-03-09T07:16:13.801Z,100.00
2023-03-09T07:19:00.655Z,100.00
2023-03-09T07:21:47.609Z,99.99
2023-03-09T07:24:38.571Z,98.15
2023-03-09T07:27:25.162Z,97.09
2023-03-09T07:30:12.512Z,97.18
2023-03-09T07:33:00.456Z,97.24
2023-03-09T07:35:46.741Z,94.71
2023-03-09T07:38:33.640Z,96.05
2023-03-09T07:41:21.087Z,95.73
2023-03-09T07:44:07.626Z,93.34
2023-03-09T07:46:53.899Z,92.87
2023-03-09T07:49:40.672Z,91.51
2023-03-09T07:52:31.635Z,92.57
2023-03-09T07:55:19.183Z,89.95
2023-03-09T07:58:06.589Z,88.95
2023-03-09T08:00:53.099Z,90.05
2023-03-09T08:03:39.576Z,90.46
2023-03-09T08:06:27.062Z,88.78
2023-03-09T08:09:16.079Z,88.66
2023-03-09T08:12:02.424Z,89.50
2023-03-09T08:14:49.236Z,89.08
2023-03-09T08:17:36.397Z,89.40
2023-03-09T08:20:23.382Z,91.08
2023-03-09T08:23:10.166Z,92.40
2023-03-09T08:25:56.745Z,93.23
2023-03-09T08:28:44.211Z,97.03
2023-03-09T08:31:30.733Z,100.00
2023-03-09T08:34:19.610Z,100.00
2023-03-09T08:37:06.307Z,100.00
2023-03-09T08:39:53.094Z,100.00
2023-03-09T08:42:39.451Z,100.00
2023-03-09T08:45:26.031Z,100.00
2023-03-09T08:48:12.987Z,100.00
2023-03-09T08:51:06.495Z,100.00
2023-03-09T08:53:52.701Z,100.00
2023-03-09T08:56:38.908Z,100.00
2023-03-09T08:59:25.345Z,100.00
2023-03-09T09:02:15.730Z,100.00
2023-03-09T09:05:02.991Z,100.00
2023-03-09T09:07:49.700Z,100.00
2023-03-09T09:10:41.121Z,100.00
2023-03-09T09:13:27.833Z,100.00
2023-03-09T09:16:16.537Z,100.00
2023-03-09T09:19:03.958Z,100.00
2023-03-09T09:21:53.738Z,99.18
2023-03-09T09:24:40.297Z,98.28
2023-03-09T09:27:27.375Z,97.53
2023-03-09T09:30:14.150Z,94.42
2023-03-09T09:33:01.683Z,93.92
2023-03-09T09:35:58.723Z,93.46
2023-03-09T09:38:45.814Z,91.34
2023-03-09T09:41:42.821Z,92.53
2023-03-09T09:44:34.723Z,89.18
2023-03-09T09:47:25.195Z,87.29
2023-03-09T09:50:15.080Z,87.28
2023-03-09T09:53:13.889Z,84.55
2023-03-09T09:56:02.177Z,86.46
2023-03-09T09:59:03.461Z,87.89
2023-03-09T10:01:57.742Z,89.95
2023-03-09T10:04:54.365Z,92.57
2023-03-09T10:07:42.204Z,94.20
2023-03-09T10:10:32.872Z,95.10
2023-03-09T10:13:39.021Z,92.27
2023-03-09T10:16:35.911Z,91.87
2023-03-09T10:19:39.873Z,90.26
2023-03-09T10:22:27.396Z,89.67
2023-03-09T10:25:17.707Z,88.04
2023-03-09T10:28:14.663Z,89.95
2023-03-09T10:31:17.593Z,87.99
2023-03-09T10:34:26.396Z,88.86
2023-03-09T10:37:18.173Z,87.25
2023-03-09T10:40:15.865Z,87.45
2023-03-09T10:43:02.885Z,89.18
2023-03-09T10:45:49.663Z,85.85
2023-03-09T10:48:36.133Z,83.33
2023-03-09T10:51:40.311Z,82.38
2023-03-09T10:54:39.595Z,79.03
2023-03-09T10:57:31.349Z,76.94
2023-03-09T11:00:18.224Z,79.54
2023-03-09T11:03:04.994Z,77.03
2023-03-09T11:05:51.524Z,78.90
2023-03-09T11:08:55.753Z,76.78
2023-03-09T11:11:48.169Z,78.07
2023-03-09T11:14:42.519Z,78.55
2023-03-09T11:17:39.693Z,78.61
2023-03-09T11:20:30.031Z,77.04
2023-03-09T11:23:34.145Z,78.61
2023-03-09T11:26:32.528Z,79.33
2023-03-09T11:29:30.118Z,79.08
2023-03-09T11:32:17.046Z,77.60
2023-03-09T11:35:04.578Z,79.91
2023-03-09T11:37:57.173Z,79.21
2023-03-09T11:40:45.460Z,79.19
2023-03-09T11:43:37.743Z,81.27
2023-03-09T11:46:25.328Z,80.98
2023-03-09T11:49:25.030Z,78.36
2023-03-09T11:52:22.488Z,79.69
2023-03-09T11:55:16.736Z,77.63
2023-03-09T11:58:09.359Z,77.21
2023-03-09T12:01:13.655Z,76.44
2023-03-09T12:04:02.843Z,76.13
2023-03-09T12:07:04.621Z,75.40
2023-03-09T12:10:00.835Z,75.08
2023-03-09T12:13:07.479Z,74.07
2023-03-09T12:16:01.969Z,76.08
2023-03-09T12:19:19.506Z,74.56
2023-03-09T12:22:14.747Z,72.95
2023-03-09T12:25:17.892Z,72.21
2023-03-09T12:28:16.626Z,74.02
2023-03-09T12:31:03.448Z,73.58
2023-03-09T12:33:49.550Z,70.42
2023-03-09T12:36:41.558Z,69.51
2023-03-09T12:39:35.044Z,68.91
2023-03-09T12:42:36.262Z,69.52
2023-03-09T12:45:26.666Z,70.32
2023-03-09T12:48:28.613Z,71.17
2023-03-09T12:51:36.114Z,71.53
2023-03-09T12:54:25.490Z,72.65
2023-03-09T12:57:18.670Z,71.61
2023-03-09T13:00:28.383Z,71.09
2023-03-09T13:03:18.388Z,70.94
2023-03-09T13:06:31.661Z,70.84
2023-03-09T13:09:40.779Z,71.85
2023-03-09T13:12:39.167Z,73.17
2023-03-09T13:15:28.106Z,72.26
2023-03-09T13:18:20.434Z,72.18
2023-03-09T13:21:58.234Z,72.95
2023-03-09T13:24:45.090Z,72.78
2023-03-09T13:27:35.163Z,72.52
2023-03-09T13:30:28.041Z,73.06
2023-03-09T13:33:26.324Z,73.82
2023-03-09T13:36:17.660Z,74.59
2023-03-09T13:39:15.149Z,75.00
2023-03-09T13:42:05.660Z,73.19
2023-03-09T13:44:54.260Z,73.94
2023-03-09T13:47:41.153Z,72.01
2023-03-09T13:50:33.611Z,70.71
2023-03-09T13:53:28.213Z,71.27
2023-03-09T13:56:15.583Z,68.79
2023-03-09T13:59:02.230Z,68.29
2023-03-09T14:01:49.202Z,69.35
2023-03-09T14:04:45.322Z,72.10
2023-03-09T14:07:56.341Z,72.96
2023-03-09T14:10:42.940Z,71.50
2023-03-09T14:13:29.714Z,69.15
2023-03-09T14:16:18.344Z,68.62
2023-03-09T14:19:05.523Z,69.56
2023-03-09T14:21:53.931Z,68.93
2023-03-09T14:24:40.545Z,68.43
2023-03-09T14:27:33.986Z,67.55
2023-03-09T14:30:32.895Z,68.81
2023-03-09T14:33:24.224Z,69.96
2023-03-09T14:36:19.923Z,69.13
2023-03-09T14:39:24.603Z,69.72
2023-03-09T14:42:19.311Z,70.50
2023-03-09T14:45:06.185Z,70.45
2023-03-09T14:47:57.361Z,71.41
2023-03-09T14:50:45.359Z,70.52
2023-03-09T14:53:31.799Z,72.05
2023-03-09T14:56:17.958Z,72.13
2023-03-09T14:59:19.361Z,69.01
2023-03-09T15:02:08.103Z,69.47
2023-03-09T15:04:55.340Z,70.52
2023-03-09T15:07:41.970Z,68.83
2023-03-09T15:10:29.450Z,68.56
2023-03-09T15:13:15.758Z,67.44
2023-03-09T15:16:02.275Z,67.73
2023-03-09T15:18:48.637Z,65.52
2023-03-09T15:21:35.075Z,65.64
2023-03-09T15:24:23.407Z,65.01
2023-03-09T15:27:10.712Z,65.57
2023-03-09T15:29:57.186Z,67.05
2023-03-09T15:32:45.521Z,66.70
2023-03-09T15:35:32.505Z,68.36
2023-03-09T15:38:19.028Z,69.51
2023-03-09T15:41:07.851Z,71.63
2023-03-09T15:43:54.635Z,70.74
2023-03-09T15:46:41.448Z,72.46
2023-03-09T15:49:27.922Z,72.33
2023-03-09T15:52:14.516Z,73.96
2023-03-09T15:55:01.030Z,72.72
2023-03-09T15:57:49.347Z,72.82
2023-03-09T16:00:39.997Z,73.42
2023-03-09T16:03:31.656Z,72.49
2023-03-09T16:06:22.366Z,73.01
2023-03-09T16:09:09.022Z,73.91
2023-03-09T16:11:55.994Z,72.79
2023-03-09T16:14:42.360Z,73.00
2023-03-09T16:17:29.122Z,73.30
2023-03-09T16:20:16.529Z,74.01
2023-03-09T16:23:02.862Z,72.32
2023-03-09T16:25:54.486Z,74.16
2023-03-09T16:28:41.884Z,73.23
2023-03-09T16:31:29.787Z,75.50
2023-03-09T16:34:15.950Z,76.70
2023-03-09T16:37:06.747Z,79.29
2023-03-09T16:39:53.077Z,79.81
2023-03-09T16:42:39.450Z,81.07
2023-03-09T16:45:25.886Z,82.31
2023-03-09T16:48:12.227Z,82.64
2023-03-09T16:51:01.835Z,83.31
2023-03-09T16:53:49.007Z,83.27
2023-03-09T16:56:36.223Z,84.27
2023-03-09T16:59:22.645Z,83.66
2023-03-09T17:02:10.277Z,83.74
2023-03-09T17:04:56.534Z,84.59
2023-03-09T17:07:43.955Z,84.20
2023-03-09T17:10:30.965Z,85.93
2023-03-09T17:13:17.452Z,85.40
2023-03-09T17:16:04.696Z,85.78
2023-03-09T17:18:55.534Z,85.08
2023-03-09T17:21:42.464Z,84.49
2023-03-09T17:24:30.656Z,84.91
2023-03-09T17:27:17.202Z,84.48
2023-03-09T17:30:04.364Z,84.74
2023-03-09T17:32:51.006Z,85.37
2023-03-09T17:35:40.404Z,84.94
2023-03-09T17:38:26.917Z,85.87
2023-03-09T17:41:13.442Z,84.80
2023-03-09T17:44:00.178Z,85.66
2023-03-09T17:46:47.221Z,84.33
2023-03-09T17:49:33.863Z,84.01
2023-03-09T17:52:20.496Z,85.03
2023-03-09T17:55:07.291Z,85.47
2023-03-09T17:57:53.999Z,85.20
2023-03-09T18:00:40.624Z,87.26
2023-03-09T18:03:26.978Z,88.06
2023-03-09T18:06:18.589Z,89.59
2023-03-09T18:09:05.386Z,87.47
2023-03-09T18:11:51.765Z,86.94
2023-03-09T18:14:37.975Z,87.45
2023-03-09T18:17:24.219Z,89.70
2023-03-09T18:20:11.291Z,87.56
2023-03-09T18:22:57.660Z,88.60
2023-03-09T18:25:44.064Z,88.26
2023-03-09T18:28:30.936Z,88.45
2023-03-09T18:31:17.865Z,88.29
2023-03-09T18:34:04.501Z,86.05
2023-03-09T18:36:51.121Z,86.38
2023-03-09T18:39:37.563Z,87.99
2023-03-09T18:42:27.804Z,87.62
2023-03-09T18:45:14.224Z,86.92
2023-03-09T18:48:01.009Z,87.66
2023-03-09T18:50:52.259Z,87.36
2023-03-09T18:53:38.869Z,87.99
2023-03-09T18:56:25.153Z,88.09
2023-03-09T18:59:15.360Z,88.47
2023-03-09T19:02:04.567Z,89.33
2023-03-09T19:04:51.022Z,89.66
2023-03-09T19:07:37.246Z,90.16
2023-03-09T19:10:23.614Z,89.35
2023-03-09T19:13:10.712Z,90.65
2023-03-09T19:16:02.200Z,88.26
2023-03-09T19:18:50.912Z,88.35
2023-03-09T19:21:38.623Z,88.39
2023-03-09T19:24:24.895Z,88.63
2023-03-09T19:27:11.257Z,88.90
2023-03-09T19:29:58.004Z,89.08
2023-03-09T19:32:45.897Z,90.03
2023-03-09T19:35:32.651Z,89.54
2023-03-09T19:38:18.841Z,88.14
2023-03-09T19:41:07.820Z,88.92
2023-03-09T19:43:55.403Z,89.44
2023-03-09T19:46:47.341Z,90.02
2023-03-09T19:49:33.525Z,91.39
2023-03-09T19:52:20.005Z,90.38
2023-03-09T19:55:07.262Z,88.62
2023-03-09T19:57:53.808Z,88.91
2023-03-09T20:00:40.600Z,87.74
2023-03-09T20:03:27.266Z,88.46
2023-03-09T20:06:14.845Z,89.50
2023-03-09T20:09:06.888Z,89.22
2023-03-09T20:11:53.628Z,88.68
2023-03-09T20:14:40.135Z,89.92
2023-03-09T20:17:26.581Z,91.01
2023-03-09T20:20:13.889Z,92.70
2023-03-09T20:23:00.649Z,93.45
2023-03-09T20:25:47.401Z,94.35
2023-03-09T20:28:35.001Z,94.82
2023-03-09T20:31:28.146Z,96.25
2023-03-09T20:34:15.192Z,94.00
2023-03-09T20:37:02.087Z,92.37
2023-03-09T20:39:50.058Z,92.11
2023-03-09T20:42:37.059Z,92.09
2023-03-09T20:45:23.710Z,91.35
2023-03-09T20:48:09.916Z,90.25
2023-03-09T20:50:57.246Z,90.04
2023-03-09T20:53:43.873Z,89.58
2023-03-09T20:56:30.976Z,89.82
2023-03-09T20:59:17.736Z,88.98
2023-03-09T21:02:04.178Z,87.21
2023-03-09T21:04:51.636Z,86.46
2023-03-09T21:07:38.861Z,86.24
2023-03-09T21:10:25.088Z,83.61
2023-03-09T21:13:13.383Z,84.48
2023-03-09T21:16:00.576Z,84.28
2023-03-09T21:18:49.458Z,84.46
2023-03-09T21:21:35.856Z,83.11
2023-03-09T21:24:22.192Z,83.48
2023-03-09T21:27:08.396Z,83.35
2023-03-09T21:29:55.291Z,82.75
2023-03-09T21:32:42.585Z,81.81
2023-03-09T21:35:29.233Z,82.52
2023-03-09T21:38:16.388Z,82.74
2023-03-09T21:41:05.079Z,82.66
2023-03-09T21:43:53.586Z,81.47
2023-03-09T21:46:40.145Z,82.22
2023-03-09T21:52:20.737Z,80.89
2023-03-09T21:55:07.394Z,82.66
2023-03-09T21:57:57.155Z,82.69
2023-03-09T22:00:44.595Z,81.14
2023-03-09T22:03:31.015Z,80.78
2023-03-09T22:06:24.558Z,81.27
2023-03-09T22:09:11.219Z,79.96
2023-03-09T22:11:58.013Z,80.82
2023-03-09T22:14:44.754Z,79.31
2023-03-09T22:17:31.764Z,77.33
2023-03-09T22:20:18.747Z,76.70
2023-03-09T22:23:05.328Z,75.33
2023-03-09T22:25:51.591Z,77.38
2023-03-09T22:28:38.547Z,76.43
2023-03-09T22:31:25.571Z,76.44
2023-03-09T22:34:12.482Z,77.44
2023-03-09T22:36:59.458Z,77.28
2023-03-09T22:39:48.860Z,76.79
2023-03-09T22:42:37.135Z,77.89
2023-03-09T22:45:23.433Z,79.59
2023-03-09T22:48:09.853Z,80.35
2023-03-09T22:50:57.171Z,81.71
2023-03-09T22:53:45.476Z,83.54
2023-03-09T22:56:31.906Z,84.75
2023-03-09T22:59:18.751Z,86.53
2023-03-09T23:02:05.462Z,86.41
2023-03-09T23:04:51.728Z,87.94
2023-03-09T23:07:37.998Z,89.03
2023-03-09T23:10:24.555Z,89.44
2023-03-09T23:13:11.506Z,90.08
2023-03-09T23:16:08.138Z,92.06
2023-03-09T23:18:55.550Z,93.49
2023-03-09T23:21:41.850Z,96.83
2023-03-09T23:24:28.264Z,98.21
2023-03-09T23:27:14.558Z,100.00
2023-03-09T23:30:00.764Z,100.00
2023-03-09T23:32:47.166Z,100.00
2023-03-09T23:35:33.715Z,100.00
2023-03-09T23:38:20.383Z,100.00
2023-03-09T23:41:12.684Z,100.00
2023-03-09T23:43:59.128Z,100.00
2023-03-09T23:46:45.486Z,100.00
2023-03-09T23:49:31.700Z,100.00
2023-03-09T23:52:18.099Z,100.00
2023-03-09T23:55:05.306Z,100.00
2023-03-09T23:57:51.547Z,100.00
